createdAt,value
2019-05-01T00:00:36.514Z,101541.06
2019-05-01T00:03:28.446Z,101495.94
2019-05-01T00:05:58.040Z,101531.83
2019-05-01T00:08:25.750Z,101531.72
2019-05-01T00:10:53.467Z,101528.55
2019-05-01T00:13:21.224Z,101537.93
2019-05-01T00:15:49.999Z,101520.47
2019-05-01T00:18:17.718Z,101522.08
2019-05-01T00:20:45.501Z,101519.14
2019-05-01T00:23:13.239Z,101524.35
2019-05-01T00:25:41.183Z,101512.89
2019-05-01T00:28:08.970Z,101514.45
2019-05-01T00:30:36.973Z,101510.89
2019-05-01T00:33:04.694Z,101511.91
2019-05-01T00:35:39.125Z,101508.84
2019-05-01T00:38:05.942Z,101449.20
2019-05-01T00:40:33.679Z,101502.02
2019-05-01T00:43:01.490Z,101501.78
2019-05-01T00:45:29.211Z,101503.52
2019-05-01T00:47:56.939Z,101497.28
2019-05-01T00:50:24.698Z,101495.69
2019-05-01T00:52:52.411Z,101490.55
2019-05-01T00:55:37.687Z,101493.56
2019-05-01T00:58:12.319Z,101489.40
2019-05-01T01:00:54.952Z,101482.13
2019-05-01T01:03:22.703Z,101416.04
2019-05-01T01:05:50.414Z,101488.02
2019-05-01T01:08:18.126Z,101487.42
2019-05-01T01:10:45.831Z,101477.16
2019-05-01T01:13:13.552Z,101480.10
2019-05-01T01:15:41.383Z,101478.81
2019-05-01T01:18:09.139Z,101479.18
2019-05-01T01:20:36.881Z,101474.20
2019-05-01T01:23:04.607Z,101462.29
2019-05-01T01:25:32.641Z,101469.66
2019-05-01T01:28:00.343Z,101471.63
2019-05-01T01:30:28.138Z,101470.30
2019-05-01T01:32:55.870Z,101464.92
2019-05-01T01:35:23.655Z,101464.84
2019-05-01T01:37:51.582Z,101469.38
2019-05-01T01:40:21.445Z,101465.11
2019-05-01T01:42:52.741Z,101466.31
2019-05-01T01:45:29.474Z,101459.10
2019-05-01T01:48:13.651Z,101453.02
2019-05-01T01:50:41.738Z,101452.85
2019-05-01T01:53:09.582Z,101444.98
2019-05-01T01:55:37.378Z,101445.88
2019-05-01T01:58:05.110Z,101439.22
2019-05-01T02:00:52.411Z,101444.45
2019-05-01T02:03:20.709Z,101440.88
2019-05-01T02:05:48.414Z,101438.30
2019-05-01T02:08:16.130Z,101433.20
2019-05-01T02:10:43.912Z,101426.05
2019-05-01T02:13:11.664Z,101426.61
2019-05-01T02:15:39.624Z,101419.78
2019-05-01T02:18:07.353Z,101422.63
2019-05-01T02:20:35.071Z,101414.05
2019-05-01T02:23:02.799Z,101418.73
2019-05-01T02:25:31.294Z,101413.47
2019-05-01T02:28:33.162Z,101412.64
2019-05-01T02:31:28.245Z,101412.34
2019-05-01T02:33:55.727Z,101411.19
2019-05-01T02:36:24.168Z,101407.27
2019-05-01T02:38:51.921Z,101352.77
2019-05-01T02:41:19.678Z,101403.16
2019-05-01T02:43:48.664Z,101395.98
2019-05-01T02:46:16.482Z,101405.97
2019-05-01T02:48:52.990Z,101275.39
2019-05-01T02:51:20.783Z,101401.81
2019-05-01T02:53:48.515Z,101396.09
2019-05-01T02:56:33.390Z,101398.73
2019-05-01T02:59:01.197Z,101404.27
2019-05-01T03:01:45.665Z,101397.38
2019-05-01T03:03:58.623Z,101405.12
2019-05-01T03:06:26.882Z,101400.85
2019-05-01T03:08:54.615Z,101400.19
2019-05-01T03:11:22.479Z,101393.59
2019-05-01T03:13:50.230Z,101385.67
2019-05-01T03:16:18.016Z,101389.80
2019-05-01T03:18:54.345Z,101387.84
2019-05-01T03:21:30.359Z,101388.23
2019-05-01T03:24:02.992Z,101380.41
2019-05-01T03:26:30.711Z,101382.16
2019-05-01T03:28:58.775Z,101381.47
2019-05-01T03:31:26.525Z,101381.27
2019-05-01T03:33:54.329Z,101379.55
2019-05-01T03:36:22.139Z,101375.28
2019-05-01T03:38:49.863Z,101377.36
2019-05-01T03:41:17.565Z,101268.81
2019-05-01T03:43:45.293Z,101371.47
2019-05-01T03:46:13.035Z,101371.25
2019-05-01T03:48:40.801Z,101371.06
2019-05-01T03:51:20.920Z,101371.23
2019-05-01T03:53:48.690Z,101365.17
2019-05-01T03:56:16.399Z,101367.80
2019-05-01T03:58:44.171Z,101362.85
2019-05-01T04:01:29.854Z,101370.70
2019-05-01T04:04:00.431Z,101366.14
2019-05-01T04:06:28.169Z,101364.86
2019-05-01T04:08:55.908Z,101361.11
2019-05-01T04:11:23.660Z,101321.85
2019-05-01T04:13:51.455Z,101358.44
2019-05-01T04:16:24.319Z,101360.42
2019-05-01T04:18:49.248Z,101366.70
2019-05-01T04:21:20.287Z,101365.24
2019-05-01T04:23:48.285Z,101366.69
2019-05-01T04:26:16.331Z,101365.17
2019-05-01T04:28:52.742Z,101360.18
2019-05-01T04:31:43.172Z,101359.22
2019-05-01T04:34:21.555Z,101357.75
2019-05-01T04:36:54.612Z,101362.41
2019-05-01T04:39:22.412Z,101363.22
2019-05-01T04:41:50.141Z,101251.55
2019-05-01T04:44:18.036Z,101357.00
2019-05-01T04:46:45.781Z,101365.77
2019-05-01T04:49:13.507Z,101365.78
2019-05-01T04:51:41.216Z,101363.59
2019-05-01T04:54:08.962Z,101360.16
2019-05-01T04:56:36.704Z,101361.08
2019-05-01T04:59:04.450Z,101359.27
2019-05-01T05:01:52.310Z,101361.58
2019-05-01T05:04:21.575Z,101355.95
2019-05-01T05:06:49.363Z,101358.64
2019-05-01T05:09:17.104Z,101362.75
2019-05-01T05:11:53.026Z,101360.42
2019-05-01T05:14:25.007Z,101265.30
2019-05-01T05:16:56.741Z,101368.16
2019-05-01T05:19:24.518Z,101365.39
2019-05-01T05:21:52.250Z,101368.18
2019-05-01T05:24:19.967Z,101365.86
2019-05-01T05:26:47.683Z,101361.98
2019-05-01T05:29:15.403Z,101368.38
2019-05-01T05:31:43.107Z,101363.84
2019-05-01T05:34:11.079Z,101364.26
2019-05-01T05:36:38.803Z,101368.03
2019-05-01T05:39:16.451Z,101362.50
2019-05-01T05:41:41.660Z,101359.05
2019-05-01T05:44:09.454Z,101359.55
2019-05-01T05:46:37.253Z,101357.03
2019-05-01T05:49:04.987Z,101359.88
2019-05-01T05:51:41.586Z,101352.75
2019-05-01T05:54:34.720Z,101350.36
2019-05-01T05:57:11.917Z,101349.86
2019-05-01T05:59:41.330Z,101353.56
2019-05-01T06:02:18.825Z,101349.93
2019-05-01T06:04:57.976Z,101346.33
2019-05-01T06:07:33.384Z,101349.15
2019-05-01T06:10:07.745Z,101343.53
2019-05-01T06:12:57.679Z,101348.05
2019-05-01T06:15:36.717Z,101347.54
2019-05-01T06:18:19.565Z,101345.50
2019-05-01T06:21:02.258Z,101346.55
2019-05-01T06:23:41.720Z,101343.85
2019-05-01T06:26:32.046Z,101343.47
2019-05-01T06:29:00.763Z,101346.55
2019-05-01T06:31:28.441Z,101341.28
2019-05-01T06:33:56.181Z,101334.40
2019-05-01T06:36:24.350Z,101338.16
2019-05-01T06:38:52.501Z,101333.73
2019-05-01T06:41:20.241Z,101335.02
2019-05-01T06:44:07.659Z,101335.42
2019-05-01T06:46:58.095Z,101325.14
2019-05-01T06:49:46.324Z,101258.61
2019-05-01T06:52:16.173Z,101337.30
2019-05-01T06:54:47.743Z,101337.94
2019-05-01T06:57:13.509Z,101334.61
2019-05-01T06:59:41.381Z,101341.25
2019-05-01T07:02:09.642Z,101337.49
2019-05-01T07:04:38.484Z,101337.48
2019-05-01T07:07:08.238Z,101334.30
2019-05-01T07:09:36.784Z,101328.43
2019-05-01T07:12:06.964Z,101331.72
2019-05-01T07:14:34.802Z,101328.92
2019-05-01T07:17:02.600Z,101326.86
2019-05-01T07:19:48.271Z,101333.84
2019-05-01T07:22:16.100Z,101324.41
2019-05-01T07:24:44.169Z,101332.20
2019-05-01T07:27:12.063Z,101326.73
2019-05-01T07:29:44.887Z,101326.73
2019-05-01T07:32:11.053Z,101324.52
2019-05-01T07:34:39.044Z,101325.28
2019-05-01T07:37:08.560Z,101327.81
2019-05-01T07:39:36.491Z,101331.64
2019-05-01T07:42:22.174Z,101327.44
2019-05-01T07:44:52.092Z,101321.13
2019-05-01T07:47:40.340Z,101315.40
2019-05-01T07:50:15.993Z,101320.94
2019-05-01T07:52:47.674Z,101262.58
2019-05-01T07:55:18.343Z,101324.20
2019-05-01T07:57:44.558Z,101325.13
2019-05-01T08:00:22.868Z,101327.47
2019-05-01T08:02:54.897Z,101320.70
2019-05-01T08:05:25.057Z,101329.06
2019-05-01T08:08:02.911Z,101332.37
2019-05-01T08:10:33.760Z,101335.36
2019-05-01T08:13:01.957Z,101330.33
2019-05-01T08:15:32.462Z,101334.55
2019-05-01T08:18:13.428Z,101329.33
2019-05-01T08:20:45.773Z,101328.58
2019-05-01T08:23:14.816Z,101337.73
2019-05-01T08:25:43.868Z,101324.22
2019-05-01T08:28:17.456Z,101324.41
2019-05-01T08:30:54.890Z,101324.66
2019-05-01T08:33:40.070Z,101262.69
2019-05-01T08:36:11.693Z,101333.05
2019-05-01T08:38:38.404Z,101337.24
2019-05-01T08:44:29.465Z,101114.16
2019-05-01T08:47:25.907Z,101339.17
2019-05-01T08:50:13.040Z,101338.94
2019-05-01T08:52:42.746Z,101344.59
2019-05-01T08:55:10.951Z,101342.92
2019-05-01T08:57:39.537Z,101344.50
2019-05-01T09:00:07.653Z,101350.27
2019-05-01T09:02:36.726Z,101336.63
2019-05-01T09:05:07.289Z,101335.20
2019-05-01T09:07:35.721Z,101326.64
2019-05-01T09:10:09.101Z,101231.43
2019-05-01T09:12:36.185Z,101326.00
2019-05-01T09:15:07.165Z,101334.27
2019-05-01T09:17:34.537Z,101330.38
2019-05-01T09:20:02.325Z,101332.29
2019-05-01T09:22:30.464Z,101335.89
2019-05-01T09:24:59.886Z,101333.72
2019-05-01T09:27:38.948Z,101330.14
2019-05-01T09:30:14.753Z,101333.38
2019-05-01T09:32:46.015Z,101337.39
2019-05-01T09:35:19.485Z,101329.56
2019-05-01T09:37:44.839Z,101330.85
2019-05-01T09:40:12.692Z,101339.57
2019-05-01T09:42:40.732Z,101340.38
2019-05-01T09:45:08.544Z,101252.55
2019-05-01T09:47:38.764Z,101334.18
2019-05-01T09:50:08.025Z,101325.70
2019-05-01T09:52:59.404Z,101322.50
2019-05-01T09:55:28.792Z,101326.40
2019-05-01T09:58:02.765Z,101325.63
2019-05-01T10:00:38.432Z,101333.31
2019-05-01T10:03:06.229Z,101324.68
2019-05-01T10:05:38.108Z,101334.38
2019-05-01T10:08:05.258Z,101332.66
2019-05-01T10:10:33.389Z,101327.33
2019-05-01T10:13:01.467Z,101291.73
2019-05-01T10:15:29.615Z,101312.53
2019-05-01T10:17:57.800Z,101271.00
2019-05-01T10:20:25.789Z,101321.66
2019-05-01T10:22:53.739Z,101311.94
2019-05-01T10:25:21.550Z,101318.98
2019-05-01T10:27:55.677Z,101312.59
2019-05-01T10:30:45.527Z,101306.59
2019-05-01T10:33:17.602Z,101315.95
2019-05-01T10:36:17.748Z,101308.08
2019-05-01T10:38:44.795Z,101304.10
2019-05-01T10:41:11.195Z,101304.90
2019-05-01T10:43:41.853Z,101295.95
2019-05-01T10:46:09.856Z,101307.87
2019-05-01T10:48:38.260Z,101303.48
2019-05-01T10:51:06.065Z,101301.98
2019-05-01T10:53:34.009Z,101299.38
2019-05-01T10:56:01.779Z,101299.95
2019-05-01T10:58:29.656Z,101304.83
2019-05-01T11:01:05.446Z,101297.66
2019-05-01T11:03:34.284Z,101292.55
2019-05-01T11:06:02.077Z,101284.44
2019-05-01T11:08:31.670Z,101285.31
2019-05-01T11:10:59.747Z,101247.15
2019-05-01T11:13:29.241Z,101286.52
2019-05-01T11:15:57.069Z,101284.98
2019-05-01T11:18:24.904Z,101283.61
2019-05-01T11:20:52.953Z,101286.08
2019-05-01T11:23:20.680Z,101276.69
2019-05-01T11:25:48.447Z,101206.61
2019-05-01T11:28:16.239Z,101272.30
2019-05-01T11:30:44.195Z,101172.40
2019-05-01T11:33:31.008Z,101227.82
2019-05-01T11:36:18.419Z,101279.28
2019-05-01T11:38:54.254Z,101268.16
2019-05-01T11:41:26.216Z,101269.26
2019-05-01T11:43:53.985Z,101262.76
2019-05-01T11:46:21.789Z,101268.05
2019-05-01T11:48:49.728Z,101266.09
2019-05-01T11:51:17.460Z,101267.30
2019-05-01T11:53:45.298Z,101263.59
2019-05-01T11:56:13.129Z,101264.38
2019-05-01T11:58:41.111Z,101255.76
2019-05-01T12:01:10.388Z,101261.78
2019-05-01T12:03:38.202Z,101263.40
2019-05-01T12:06:07.124Z,101262.87
2019-05-01T12:08:34.876Z,101264.22
2019-05-01T12:11:05.301Z,101264.45
2019-05-01T12:13:43.294Z,101260.50
2019-05-01T12:16:09.257Z,101254.57
2019-05-01T12:18:37.079Z,101253.95
2019-05-01T12:21:04.783Z,101262.84
2019-05-01T12:23:32.559Z,101250.47
2019-05-01T12:26:00.325Z,101208.67
2019-05-01T12:28:28.124Z,101236.95
2019-05-01T12:30:55.871Z,101163.66
2019-05-01T12:33:23.624Z,101251.45
2019-05-01T12:35:53.136Z,101248.66
2019-05-01T12:38:20.897Z,101250.44
2019-05-01T12:41:07.757Z,101255.13
2019-05-01T12:43:35.479Z,101244.26
2019-05-01T12:46:03.291Z,101248.89
2019-05-01T12:48:31.018Z,101248.55
2019-05-01T12:50:58.957Z,101241.08
2019-05-01T12:53:40.135Z,101236.66
2019-05-01T12:56:33.469Z,101237.00
2019-05-01T12:59:01.315Z,101236.84
2019-05-01T13:01:29.232Z,101201.28
2019-05-01T13:03:57.003Z,101239.70
2019-05-01T13:06:24.739Z,101232.47
2019-05-01T13:08:52.521Z,101227.46
2019-05-01T13:11:20.492Z,101237.50
2019-05-01T13:13:49.235Z,101234.41
2019-05-01T13:16:16.970Z,101238.55
2019-05-01T13:18:44.710Z,101233.91
2019-05-01T13:21:12.618Z,101221.94
2019-05-01T13:23:40.411Z,101120.33
2019-05-01T13:26:14.816Z,101211.82
2019-05-01T13:28:59.797Z,101218.38
2019-05-01T13:31:46.735Z,101207.70
2019-05-01T13:34:14.788Z,101208.74
2019-05-01T13:36:42.526Z,101124.86
2019-05-01T13:39:12.808Z,101196.42
2019-05-01T13:41:40.539Z,101196.67
2019-05-01T13:44:08.263Z,101196.10
2019-05-01T13:46:36.030Z,101194.17
2019-05-01T13:49:03.769Z,101189.95
2019-05-01T13:51:38.823Z,101188.57
2019-05-01T13:54:07.407Z,101121.73
2019-05-01T13:56:35.134Z,101174.44
2019-05-01T13:59:04.162Z,101170.10
2019-05-01T14:01:31.919Z,101169.88
2019-05-01T14:03:59.678Z,101162.57
2019-05-01T14:06:27.471Z,101170.41
2019-05-01T14:08:55.638Z,101163.66
2019-05-01T14:11:23.591Z,101163.77
2019-05-01T14:13:51.359Z,101160.10
2019-05-01T14:16:24.800Z,101152.52
2019-05-01T14:18:52.661Z,101166.26
2019-05-01T14:21:42.249Z,101164.44
2019-05-01T14:24:31.223Z,101163.39
2019-05-01T14:27:01.357Z,101164.81
2019-05-01T14:29:29.139Z,101162.81
2019-05-01T14:31:56.907Z,101162.20
2019-05-01T14:34:24.691Z,101166.16
2019-05-01T14:36:52.527Z,101163.78
2019-05-01T14:39:20.314Z,101158.71
2019-05-01T14:41:48.115Z,101158.17
2019-05-01T14:44:15.996Z,101155.45
2019-05-01T14:46:47.485Z,101157.63
2019-05-01T14:49:16.340Z,101144.77
2019-05-01T14:51:44.116Z,101151.77
2019-05-01T14:54:11.862Z,101149.42
2019-05-01T14:56:39.655Z,101138.52
2019-05-01T14:59:08.470Z,101142.53
2019-05-01T15:01:36.252Z,101145.34
2019-05-01T15:04:05.409Z,101137.43
2019-05-01T15:06:33.382Z,101135.62
2019-05-01T15:09:01.116Z,101137.17
2019-05-01T15:11:29.212Z,101084.98
2019-05-01T15:14:06.683Z,101145.88
2019-05-01T15:16:59.820Z,101146.23
2019-05-01T15:19:29.740Z,101138.50
2019-05-01T15:21:57.626Z,101137.13
2019-05-01T15:24:25.431Z,101127.33
2019-05-01T15:26:53.178Z,101128.50
2019-05-01T15:29:20.956Z,101123.17
2019-05-01T15:31:48.743Z,101127.44
2019-05-01T15:34:16.471Z,101122.98
2019-05-01T15:36:44.247Z,101124.00
2019-05-01T15:39:18.623Z,101121.45
2019-05-01T15:42:04.123Z,101121.21
2019-05-01T15:44:34.382Z,101120.05
2019-05-01T15:47:02.121Z,101107.59
2019-05-01T15:49:30.151Z,101118.78
2019-05-01T15:51:57.886Z,101116.00
2019-05-01T15:54:25.620Z,101116.29
2019-05-01T15:56:53.382Z,101112.26
2019-05-01T15:59:21.107Z,101108.66
2019-05-01T16:01:49.003Z,101113.09
2019-05-01T16:04:16.812Z,101101.13
2019-05-01T16:06:44.542Z,101109.00
2019-05-01T16:09:12.331Z,101111.89
2019-05-01T16:12:07.451Z,101113.48
2019-05-01T16:14:35.343Z,101106.48
2019-05-01T16:17:03.248Z,101101.70
2019-05-01T16:19:31.019Z,101103.77
2019-05-01T16:21:58.727Z,101102.66
2019-05-01T16:24:26.475Z,101100.46
2019-05-01T16:26:54.306Z,101106.11
2019-05-01T16:29:22.230Z,101102.03
2019-05-01T16:31:50.072Z,101094.27
2019-05-01T16:34:17.852Z,101096.12
2019-05-01T16:36:45.980Z,101098.47
2019-05-01T16:39:51.435Z,101090.26
2019-05-01T16:42:19.932Z,101095.65
2019-05-01T16:44:47.683Z,101085.48
2019-05-01T16:47:15.444Z,101088.63
2019-05-01T16:49:43.335Z,101085.48
2019-05-01T16:52:12.006Z,101082.72
2019-05-01T16:54:39.758Z,101078.76
2019-05-01T16:57:09.185Z,101083.05
2019-05-01T16:59:36.990Z,101085.81
2019-05-01T17:02:16.803Z,101081.52
2019-05-01T17:05:12.682Z,101079.89
2019-05-01T17:07:59.504Z,101074.22
2019-05-01T17:10:35.989Z,101069.36
2019-05-01T17:13:04.711Z,101077.58
2019-05-01T17:15:40.670Z,101070.58
2019-05-01T17:18:08.407Z,101067.09
2019-05-01T17:20:36.178Z,101066.78
2019-05-01T17:23:05.603Z,101068.13
2019-05-01T17:25:33.608Z,101075.69
2019-05-01T17:28:02.812Z,101062.27
2019-05-01T17:30:38.533Z,101062.83
2019-05-01T17:33:06.257Z,101059.36
2019-05-01T17:35:36.908Z,101054.60
2019-05-01T17:38:07.455Z,101008.95
2019-05-01T17:40:35.290Z,101053.03
2019-05-01T17:43:03.040Z,101046.39
2019-05-01T17:45:34.784Z,101045.24
2019-05-01T17:48:00.257Z,101041.60
2019-05-01T17:50:28.005Z,101036.30
2019-05-01T17:52:55.832Z,101038.53
2019-05-01T17:55:23.635Z,101036.56
2019-05-01T17:57:51.415Z,101038.85
2019-05-01T18:00:43.159Z,101040.55
2019-05-01T18:03:27.792Z,101032.71
2019-05-01T18:06:08.584Z,101031.31
2019-05-01T18:08:36.391Z,101034.73
2019-05-01T18:11:04.276Z,101036.13
2019-05-01T18:13:32.082Z,101036.77
2019-05-01T18:15:59.867Z,101033.62
2019-05-01T18:18:27.741Z,101036.30
2019-05-01T18:20:55.564Z,101038.05
2019-05-01T18:23:49.466Z,101033.27
2019-05-01T18:26:23.718Z,101034.16
2019-05-01T18:29:05.845Z,101013.18
2019-05-01T18:31:33.130Z,101032.78
2019-05-01T18:34:02.362Z,101031.92
2019-05-01T18:36:35.391Z,101036.81
2019-05-01T18:39:16.523Z,101035.26
2019-05-01T18:41:50.810Z,101035.12
2019-05-01T18:44:18.520Z,101030.56
2019-05-01T18:46:46.261Z,101024.02
2019-05-01T18:49:14.050Z,101024.80
2019-05-01T18:51:42.038Z,101031.11
2019-05-01T18:54:09.830Z,101022.56
2019-05-01T18:56:39.342Z,101020.70
2019-05-01T18:59:07.003Z,101016.23
2019-05-01T19:01:34.840Z,101011.62
2019-05-01T19:04:02.580Z,101021.59
2019-05-01T19:06:40.653Z,101008.22
2019-05-01T19:09:14.776Z,101007.54
2019-05-01T19:11:36.437Z,101011.58
2019-05-01T19:14:04.311Z,101004.55
2019-05-01T19:16:32.193Z,101013.20
2019-05-01T19:19:00.038Z,101011.70
2019-05-01T19:21:28.750Z,101012.38
2019-05-01T19:24:00.664Z,100974.18
2019-05-01T19:26:26.216Z,100999.53
2019-05-01T19:28:54.015Z,100993.13
2019-05-01T19:31:21.882Z,100997.76
2019-05-01T19:33:49.902Z,100994.73
2019-05-01T19:36:17.858Z,100991.01
2019-05-01T19:38:45.767Z,100995.12
2019-05-01T19:41:14.374Z,100987.62
2019-05-01T19:43:42.357Z,100982.77
2019-05-01T19:46:16.558Z,100980.30
2019-05-01T19:48:45.378Z,100985.99
2019-05-01T19:51:13.874Z,100978.17
2019-05-01T19:53:46.608Z,100971.12
2019-05-01T19:56:12.276Z,100970.12
2019-05-01T19:58:41.739Z,100971.83
2019-05-01T20:01:09.517Z,100962.10
2019-05-01T20:03:38.592Z,100970.22
2019-05-01T20:06:08.176Z,100957.17
2019-05-01T20:08:36.806Z,100960.41
2019-05-01T20:11:04.558Z,100958.52
2019-05-01T20:13:32.274Z,100956.42
2019-05-01T20:16:00.007Z,100951.14
2019-05-01T20:18:29.465Z,100950.68
2019-05-01T20:20:59.525Z,100951.60
2019-05-01T20:23:31.533Z,100951.64
2019-05-01T20:25:57.264Z,100949.21
2019-05-01T20:28:25.115Z,100953.52
2019-05-01T20:30:52.954Z,100953.51
2019-05-01T20:33:20.696Z,100944.67
2019-05-01T20:35:48.550Z,100947.70
2019-05-01T20:38:16.437Z,100936.62
2019-05-01T20:40:44.256Z,100934.83
2019-05-01T20:43:11.980Z,100937.95
2019-05-01T20:45:39.813Z,100939.73
2019-05-01T20:48:07.631Z,100936.94
2019-05-01T20:50:35.371Z,100931.03
2019-05-01T20:53:03.191Z,100926.07
2019-05-01T20:55:30.924Z,100929.42
2019-05-01T20:58:17.895Z,100924.20
2019-05-01T21:00:48.104Z,100918.59
2019-05-01T21:03:18.201Z,100917.47
2019-05-01T21:05:52.974Z,100925.02
2019-05-01T21:08:39.292Z,100917.05
2019-05-01T21:11:11.047Z,100915.97
2019-05-01T21:13:46.107Z,100908.08
2019-05-01T21:16:11.214Z,100900.95
2019-05-01T21:18:38.997Z,100907.42
2019-05-01T21:21:06.735Z,100900.70
2019-05-01T21:23:34.520Z,100901.63
2019-05-01T21:26:03.875Z,100899.02
2019-05-01T21:28:33.932Z,100900.92
2019-05-01T21:31:03.669Z,100902.08
2019-05-01T21:33:30.892Z,100894.02
2019-05-01T21:35:59.467Z,100895.80
2019-05-01T21:38:28.187Z,100886.52
2019-05-01T21:40:55.948Z,100883.97
2019-05-01T21:43:27.800Z,100888.63
2019-05-01T21:45:53.512Z,100881.94
2019-05-01T21:48:23.081Z,100879.55
2019-05-01T21:51:07.134Z,100878.84
2019-05-01T21:53:32.841Z,100872.44
2019-05-01T21:56:02.149Z,100872.66
2019-05-01T21:58:33.294Z,100871.89
2019-05-01T22:01:01.153Z,100869.20
2019-05-01T22:03:29.044Z,100869.97
2019-05-01T22:05:56.798Z,100832.58
2019-05-01T22:08:24.654Z,100863.11
2019-05-01T22:10:52.503Z,100856.84
2019-05-01T22:13:24.244Z,100853.80
2019-05-01T22:15:55.154Z,100854.77
2019-05-01T22:18:36.166Z,100851.64
2019-05-01T22:21:26.211Z,100726.50
2019-05-01T22:24:15.914Z,100843.70
2019-05-01T22:26:48.157Z,100740.39
2019-05-01T22:29:21.588Z,100847.78
2019-05-01T22:32:14.294Z,100846.70
2019-05-01T22:35:01.142Z,100831.86
2019-05-01T22:37:28.899Z,100837.59
2019-05-01T22:40:07.472Z,100832.31
2019-05-01T22:42:35.238Z,100824.55
2019-05-01T22:45:02.955Z,100824.21
2019-05-01T22:47:30.687Z,100824.92
2019-05-01T22:49:58.450Z,100813.95
2019-05-01T22:52:26.184Z,100759.41
2019-05-01T22:54:53.982Z,100815.24
2019-05-01T22:57:22.007Z,100808.02
2019-05-01T22:59:49.746Z,100749.42
2019-05-01T23:02:28.399Z,100798.44
2019-05-01T23:04:54.519Z,100792.70
2019-05-01T23:07:22.550Z,100790.34
2019-05-01T23:09:50.329Z,100791.78
2019-05-01T23:12:18.085Z,100789.55
2019-05-01T23:14:52.951Z,100786.20
2019-05-01T23:17:30.108Z,100784.45
2019-05-01T23:19:58.987Z,100781.27
2019-05-01T23:22:27.456Z,100767.30
2019-05-01T23:24:55.211Z,100764.36
2019-05-01T23:27:24.512Z,100764.09
2019-05-01T23:29:52.464Z,100766.49
2019-05-01T23:32:20.209Z,100759.31
2019-05-01T23:34:47.944Z,100759.73
2019-05-01T23:37:15.735Z,100750.22
2019-05-01T23:39:43.484Z,100751.14
2019-05-01T23:42:11.227Z,100739.30
2019-05-01T23:44:43.041Z,100747.99
2019-05-01T23:47:08.456Z,100748.29
2019-05-01T23:49:36.217Z,100739.50
2019-05-01T23:52:05.240Z,100736.58
2019-05-01T23:54:33.078Z,100728.43
2019-05-01T23:57:00.827Z,100728.43
2019-05-01T23:59:28.601Z,100719.23
